Alcoa, Tennessee
Current Conditions -  °F | °C
As of 11:53 AM on Thursday 23 Oct 2014 (Local Time) from KTYS Reporting Station
Few Clouds Few Clouds  
Wind Chill: 56°   Ceiling: Unl
Heat Index: 56°   Visibility: 10mi
Dew Point: 42°   Wind: 13mph
Humidity: 60%   Direction: 50°NE
Pressure: 30.18"   Gusts: NA
Location:  35.77°N, 83.98°W
Report Text: KTYS 231553Z 05011KT 10SM FEW035 13/06 A3018 RMK AO2 SLP221 T01330056
Loading
Personal Weather Stations






























Interactive Weather Map
Tropical Storm Tracking
New forecast layout! Learn more

10-Day Weather Forecast

Advertisements
Track Severe Weather on mobile